Latest Coastal Weather Observations for Point Stuart

IDD60701

Issued at 1:51 pm CST Monday 26 January 2015 (issued every 10 minutes, with the page automatically refreshed every 10 minutes)

About coastal observations | Map of coastal stations | Coastal observations for NT | Marine services | Other Formats
Station Details ID: 014254 Name: POINT STUART Lat: -12.24 Lon: 131.88 Height: 1.0 m
Data from the previous 72 hours. | See also: Recent months for locations in Northern Territory
Date/Time
CST
Temp

°C
Wind Pressure Rain
since 9am
mm
Weather Cloud Vis
km
Sea
Height
m
Swell
Dir
 
Speed
knots
Gust
knots
hPa Trend Height
m
Period
s
Dir
26/01:30pm 31.0 NW 15 19 1006.6 - 0.0 - - - - - - -
26/01:00pm 31.6 NW 12 17 1007.3 - 0.0 - - - - - - -
26/12:30pm 31.4 WNW 11 16 1007.5 - 0.0 - - - - - - -
26/12:00pm 31.5 WNW 10 13 1007.9 - 0.0 - - - - - - -
26/11:30am 31.2 WNW 9 12 1008.6 - 0.0 - - - - - - -
26/11:00am 30.9 WNW 7 9 1009.2 - 0.0 - - - - - - -
26/10:30am 30.2 W 7 10 1009.3 - 0.0 - - - - - - -
26/10:00am 29.8 W 8 11 1009.1 - 0.0 - - - - - - -
26/09:30am 29.3 WNW 4 7 1009.1 - 0.0 - - - - - - -
26/09:00am 28.8 SSE 1 5 1009.0 - 0.2 - - - - - - -
26/08:30am 27.9 ESE 4 6 1009.1 - 0.2 - - - - - - -
26/08:00am 26.5 SE 3 3 1009.1 - 0.2 - - - - - - -
26/07:30am 26.3 NE 1 4 1009.0 - 0.2 - - - - - - -
26/07:00am 25.6 S 5 6 1008.5 - 0.2 - - - - - - -
26/06:30am 25.2 CALM 0 0 1008.3 - 0.2 - - - - - - -
26/06:00am 25.2 CALM 0 0 1008.0 - 0.2 - - - - - - -
26/05:30am 25.1 CALM 0 0 1007.6 - 0.2 - - - - - - -
26/05:00am 25.0 CALM 0 0 1007.2 - 0.2 - - - - - - -
26/04:30am 25.3 S 3 4 1007.2 - 0.2 - - - - - - -
26/04:00am 25.3 S 4 5 1007.3 - 0.2 - - - - - - -
26/03:30am 25.0 SE 3 5 1007.1 - 0.2 - - - - - - -
26/03:00am 25.2 SE 3 4 1007.2 - 0.2 - - - - - - -
26/02:30am 25.2 SSE 2 4 1007.7 - 0.2 - - - - - - -
26/02:00am 25.2 ESE 3 4 1007.7 - 0.2 - - - - - - -
26/01:30am 25.3 SE 3 4 1008.1 - 0.2 - - - - - - -
26/01:00am 25.6 CALM 0 0 1008.6 - 0.2 - - - - - - -
26/12:30am 25.6 S 3 4 1009.1 - 0.2 - - - - - - -
26/12:00am 26.0 S 4 5 1009.3 - 0.2 - - - - - - -
 
Date/Time
CST
Temp

°C
Wind Pressure Rain
since 9am
mm
Weather Cloud Vis
km
Sea
Height
m
Swell
Dir
 
Speed
knots
Gust
knots
hPa Trend Height
m
Period
s
Dir
25/11:30pm 26.1 S 5 6 1009.7 - 0.2 - - - - - - -
25/11:00pm 25.9 S 6 7 1009.9 - 0.2 - - - - - - -
25/10:30pm 25.9 WSW 3 5 1009.4 - 0.2 - - - - - - -
25/10:00pm 26.1 W 5 6 1009.2 - 0.2 - - - - - - -
25/09:30pm 26.1 WSW 6 7 1009.0 - 0.2 - - - - - - -
25/09:00pm 26.0 WSW 5 6 1008.8 - 0.2 - - - - - - -
25/08:30pm 26.2 W 8 9 1008.2 - 0.2 - - - - - - -
25/08:00pm 26.7 W 8 10 1007.8 - 0.2 - - - - - - -
25/07:30pm 27.0 WSW 8 10 1007.4 - 0.2 - - - - - - -
25/07:00pm 27.4 WSW 8 11 1006.8 - 0.2 - - - - - - -
25/06:30pm 28.2 W 12 15 1006.7 - 0.2 - - - - - - -
25/06:00pm 28.7 W 13 17 1006.6 - 0.2 - - - - - - -
25/05:30pm 28.8 WNW 13 18 1006.8 - 0.2 - - - - - - -
25/05:00pm 28.9 WNW 13 17 1006.5 - 0.2 - - - - - - -
25/04:30pm 29.2 WNW 15 18 1006.7 - 0.2 - - - - - - -
25/04:00pm 30.3 NW 16 19 1006.6 - 0.2 - - - - - - -
25/03:30pm 30.0 NW 15 20 1006.6 - 0.2 - - - - - - -
25/03:00pm 31.3 NW 14 21 1007.1 - 0.2 - - - - - - -
25/02:30pm 32.4 NW 12 16 1007.5 - 0.2 - - - - - - -
25/02:00pm 32.1 NW 12 16 1007.8 - 0.2 - - - - - - -
25/01:30pm 31.7 NW 11 16 1008.2 - 0.2 - - - - - - -
25/01:00pm 31.8 NW 11 14 1008.5 - 0.2 - - - - - - -
25/12:30pm 31.2 NW 11 15 1008.6 - 0.2 - - - - - - -
25/12:00pm 31.4 NW 10 14 1009.0 - 0.2 - - - - - - -
25/11:30am 31.8 NW 11 14 1009.6 - 0.2 - - - - - - -
25/11:00am 30.1 NW 12 16 1010.1 - 0.0 - - - - - - -
25/10:30am 29.3 NW 11 15 1010.5 - 0.0 - - - - - - -
25/10:00am 29.2 NW 8 11 1010.0 - 0.0 - - - - - - -
25/09:30am 28.6 NW 10 13 1010.0 - 0.0 - - - - - - -
25/09:00am 28.6 NW 8 10 1010.2 - 0.2 - - - - - - -
25/08:30am 28.6 WNW 5 7 1009.7 - 0.2 - - - - - - -
25/08:00am 27.8 W 3 5 1009.6 - 0.2 - - - - - - -
25/07:30am 27.3 WNW 5 7 1008.9 - 0.2 - - - - - - -
25/07:00am 27.3 NW 8 11 1008.6 - 0.2 - - - - - - -
25/06:30am 27.2 NW 6 8 1008.2 - 0.2 - - - - - - -
25/06:00am 27.1 WNW 5 7 1007.9 - 0.2 - - - - - - -
25/05:30am 27.2 WNW 7 9 1007.9 - 0.2 - - - - - - -
25/05:00am 27.3 NW 8 11 1008.0 - 0.2 - - - - - - -
25/04:30am 27.0 NW 6 9 1007.8 - 0.2 - - - - - - -
25/04:00am 27.1 NNW 8 11 1007.8 - 0.2 - - - - - - -
25/03:30am 27.1 NNW 6 8 1007.6 - 0.2 - - - - - - -
25/03:00am 26.6 CALM 0 0 1007.5 - 0.2 - - - - - - -
25/02:30am 26.5 CALM 0 0 1007.9 - 0.2 - - - - - - -
25/02:00am 26.7 W 3 4 1007.9 - 0.2 - - - - - - -
25/01:30am 26.8 W 1 4 1008.4 - 0.2 - - - - - - -
25/01:00am 27.3 W 5 6 1008.7 - 0.2 - - - - - - -
25/12:30am 27.7 WNW 9 13 1008.7 - 0.2 - - - - - - -
25/12:00am 27.9 NW 12 16 1008.8 - 0.2 - - - - - - -
 
Date/Time
CST
Temp

°C
Wind Pressure Rain
since 9am
mm
Weather Cloud Vis
km
Sea
Height
m
Swell
Dir
 
Speed
knots
Gust
knots
hPa Trend Height
m
Period
s
Dir
24/11:30pm 27.6 NW 9 12 1008.5 - 0.2 - - - - - - -
24/11:00pm 27.9 NW 8 11 1009.2 - 0.2 - - - - - - -
24/10:30pm 27.5 W 6 8 1009.2 - 0.2 - - - - - - -
24/10:00pm 27.4 WNW 7 9 1009.1 - 0.2 - - - - - - -
24/09:30pm 27.5 WNW 6 7 1008.6 - 0.2 - - - - - - -
24/09:00pm 27.7 WNW 8 11 1008.2 - 0.2 - - - - - - -
24/08:30pm 27.6 NNW 6 9 1008.2 - 0.2 - - - - - - -
24/08:00pm 27.7 NW 6 9 1008.1 - 0.2 - - - - - - -
24/07:30pm 28.1 NW 10 13 1007.8 - 0.2 - - - - - - -
24/07:00pm 28.3 NW 11 14 1007.3 - 0.2 - - - - - - -
24/06:30pm 28.4 WNW 12 15 1007.0 - 0.2 - - - - - - -
24/06:00pm 28.8 WNW 13 17 1005.9 - 0.2 - - - - - - -
24/05:30pm 29.1 NW 14 19 1005.3 - 0.2 - - - - - - -
24/05:00pm 30.2 NW 13 17 1005.1 - 0.2 - - - - - - -
24/04:30pm 30.3 NW 14 18 1004.9 - 0.2 - - - - - - -
24/04:00pm 29.9 NW 14 18 1005.4 - 0.2 - - - - - - -
24/03:30pm 30.9 NW 11 16 1005.7 - 0.2 - - - - - - -
24/03:00pm 31.4 NW 11 14 1006.1 - 0.2 - - - - - - -
24/02:30pm 30.2 NNW 7 10 1006.2 - 0.2 - - - - - - -
24/02:00pm 30.0 NW 5 9 1006.2 - 0.2 - - - - - - -
24/01:30pm 30.6 NW 7 11 1006.1 - 0.2 - - - - - - -
24/01:00pm 30.4 NNW 7 11 1006.3 - 0.2 - - - - - - -
24/12:30pm 29.8 NNW 8 11 1006.6 - 0.2 - - - - - - -
24/12:00pm 29.9 NW 8 11 1006.9 - 0.2 - - - - - - -
24/11:30am 29.2 NW 10 14 1007.3 - 0.0 - - - - - - -
24/11:00am 28.3 NW 10 13 1007.8 - 0.0 - - - - - - -
24/10:30am 27.6 NNW 12 16 1008.0 - 0.0 - - - - - - -
24/10:00am 27.2 NNW 11 15 1008.3 - 0.0 - - - - - - -
24/09:30am 27.0 NNW 7 11 1008.0 - 0.0 - - - - - - -
24/09:00am 26.9 NW 10 14 1007.6 - 6.4 - - - - - - -
24/08:30am 26.3 NNW 6 9 1007.6 - 6.4 - - - - - - -
24/08:00am 26.5 NNW 8 18 1007.3 - 6.4 - - - - - - -
24/07:30am 26.7 NNW 6 8 1007.2 - 5.4 - - - - - - -
24/07:00am 26.8 N 7 11 1006.7 - 5.4 - - - - - - -
24/06:30am 27.2 WNW 5 7 1006.3 - 5.4 - - - - - - -
24/06:00am 27.0 WNW 6 7 1006.1 - 5.4 - - - - - - -
24/05:30am 26.5 W 4 6 1005.3 - 5.4 - - - - - - -
24/05:00am 26.5 W 4 5 1005.0 - 5.4 - - - - - - -
24/04:30am 26.4 W 3 3 1004.9 - 5.4 - - - - - - -
24/04:00am 26.6 W 4 5 1004.9 - 5.4 - - - - - - -
24/03:30am 26.8 W 4 5 1004.9 - 5.4 - - - - - - -
24/03:00am 27.1 W 5 6 1004.7 - 5.4 - - - - - - -
24/02:30am 27.5 W 6 7 1005.5 - 5.4 - - - - - - -
24/02:00am 27.4 W 7 10 1005.6 - 5.4 - - - - - - -
24/01:30am 26.7 W 6 8 1005.8 - 5.4 - - - - - - -
24/01:00am 27.0 W 7 9 1005.9 - 5.4 - - - - - - -
24/12:30am 26.9 W 6 7 1006.6 - 5.4 - - - - - - -
24/12:00am 26.8 W 6 8 1006.7 - 5.4 - - - - - - -
 
Date/Time
CST
Temp

°C
Wind Pressure Rain
since 9am
mm
Weather Cloud Vis
km
Sea
Height
m
Swell
Dir
 
Speed
knots
Gust
knots
hPa Trend Height
m
Period
s
Dir
23/11:30pm 26.2 W 6 7 1006.5 - 5.4 - - - - - - -
23/11:00pm 26.3 WSW 2 5 1005.9 - 5.4 - - - - - - -
23/10:30pm 26.7 SW 6 8 1005.5 - 5.4 - - - - - - -
23/10:00pm 27.3 WSW 9 12 1005.4 - 5.4 - - - - - - -
23/09:30pm 27.6 W 12 15 1005.1 - 5.4 - - - - - - -
23/09:00pm 27.5 WNW 11 16 1005.3 - 5.4 - - - - - - -
23/08:30pm 27.5 WNW 13 17 1005.5 - 5.4 - - - - - - -
23/08:00pm 27.1 WNW 13 16 1005.8 - 5.4 - - - - - - -
23/07:30pm 27.1 WNW 13 17 1006.0 - 5.4 - - - - - - -
23/07:00pm 27.3 WNW 16 21 1006.0 - 5.4 - - - - - - -
23/06:30pm 27.4 WNW 14 19 1005.5 - 5.4 - - - - - - -
23/06:00pm 27.1 WNW 13 17 1004.6 - 5.4 - - - - - - -
23/05:30pm 26.6 W 11 14 1003.4 - 5.4 - - - - - - -
23/05:00pm 26.7 W 17 23 1003.8 - 5.4 - - - - - - -
23/04:30pm 27.1 W 14 19 1003.6 - 5.4 - - - - - - -
23/04:00pm 28.0 WNW 14 18 1002.9 - 5.4 - - - - - - -
23/03:30pm 29.0 WNW 13 16 1003.2 - 5.4 - - - - - - -
23/03:00pm 29.2 WNW 10 14 1003.6 - 5.4 - - - - - - -
23/02:30pm 29.0 WNW 10 12 1004.1 - 5.2 - - - - - - -
23/02:00pm 28.6 WNW 10 13 1004.7 - 5.2 - - - - - - -

Other Formats:

Comma delimited format used in spreadsheet applications
http://www.bom.gov.au/fwo/IDD60701/IDD60701.94127.axf

JavaScript Object Notation format (JSON) in row-major order
http://www.bom.gov.au/fwo/IDD60701/IDD60701.94127.json